Abbottabad Weather



Abbottabad's Current Weather

Temprature 17.49o clear sky

clear sky

Rain: 0 %

Min Temprature17.49o
Max Temprature17.49o
Humidity77
Wind Speed2.02 m/h
Sun Rise05:57:40
Sun Set17:59:31
Current Time: 26-Sep-2022 07:08:40
Lat/Lon: 34.1469, 73.2145




Abbottabad's Geo Location



Abbottabad's Weather Forecast

Time Overall Temp Min Temp Max Temp Humidity Wind Speed Rain
26-Sep-2022 (Mon)
08:00:00 clear sky 20.160 20.160 20.160 67 0.96 m/h 0 %
11:00:00 clear sky 21.340 21.340 23.710 63 2.24 m/h 0 %
14:00:00 clear sky 22.970 22.970 24.380 60 2.51 m/h 0 %
17:00:00 clear sky 22.760 22.760 22.760 69 1.14 m/h 0 %
20:00:00 clear sky 18.580 18.580 18.580 81 1.29 m/h 0 %
23:00:00 clear sky 18.090 18.090 18.090 79 1.67 m/h 0 %
27-Sep-2022 (Tue)
02:00:00 clear sky 17.550 17.550 17.550 77 1.69 m/h 0 %
05:00:00 clear sky 17.120 17.120 17.120 77 1.58 m/h 0 %
08:00:00 clear sky 21.150 21.150 21.150 65 0.56 m/h 0 %
11:00:00 clear sky 24.430 24.430 24.430 57 2.36 m/h 0 %
14:00:00 clear sky 25.240 25.240 25.240 57 3.01 m/h 0 %
17:00:00 few clouds 23.330 23.330 23.330 70 1.66 m/h 0 %
20:00:00 clear sky 19.230 19.230 19.230 78 1.12 m/h 0 %
23:00:00 clear sky 18.540 18.540 18.540 79 1.88 m/h 0 %
28-Sep-2022 (Wed)
02:00:00 clear sky 17.850 17.850 17.850 79 2.15 m/h 0 %
05:00:00 clear sky 17.460 17.460 17.460 73 1.91 m/h 0 %
08:00:00 clear sky 21.470 21.470 21.470 63 0.8 m/h 0 %
11:00:00 light rain 24.640 24.640 24.640 56 2.32 m/h 12 %
14:00:00 light rain 25.580 25.580 25.580 53 2.73 m/h 28 %
17:00:00 clear sky 23.650 23.650 23.650 65 1.77 m/h 0 %
20:00:00 few clouds 19.260 19.260 19.260 74 1.8 m/h 0 %
23:00:00 light rain 18.060 18.060 18.060 74 2.52 m/h 12 %
29-Sep-2022 (Thu)
02:00:00 light rain 17.320 17.320 17.320 70 2.63 m/h 12 %
05:00:00 light rain 16.630 16.630 16.630 69 2.7 m/h 62 %
08:00:00 light rain 20.820 20.820 20.820 58 1.26 m/h 58 %
11:00:00 clear sky 25.110 25.110 25.110 46 1.65 m/h 0 %
14:00:00 light rain 25.830 25.830 25.830 47 2.46 m/h 14 %
17:00:00 clear sky 23.580 23.580 23.580 63 1.46 m/h 0 %
20:00:00 clear sky 19.370 19.370 19.370 68 1.58 m/h 0 %
23:00:00 clear sky 18.510 18.510 18.510 68 2.47 m/h 0 %
30-Sep-2022 (Fri)
02:00:00 clear sky 17.850 17.850 17.850 66 2.59 m/h 0 %
05:00:00 clear sky 17.490 17.490 17.490 63 2.58 m/h 0 %
08:00:00 clear sky 21.520 21.520 21.520 57 0.94 m/h 0 %
11:00:00 clear sky 25.590 25.590 25.590 48 1.82 m/h 0 %
14:00:00 light rain 26.280 26.280 26.280 47 2.49 m/h 13 %
17:00:00 clear sky 24.070 24.070 24.070 62 1.6 m/h 0 %
20:00:00 clear sky 19.920 19.920 19.920 67 1.37 m/h 0 %
23:00:00 clear sky 19.070 19.070 19.070 68 2.6 m/h 0 %
01-Oct-2022 (Sat)
02:00:00 clear sky 18.350 18.350 18.350 65 2.81 m/h 0 %
05:00:00 few clouds 19.110 19.110 19.110 58 2.36 m/h 0 %


Abbottabad's Tourist Spots

Historical Places in Abbottabad

Famous Cities (61)